Time;durP1;ratioP1;P1;durP2;ratioP2;P2;SDS_P1;SDS_P2;PMS_P1;PMS_P2;Temp;Humidity;BMP_temperature;BMP_pressure;BME280_temperature;BME280_humidity;BME280_pressure;Samples;Min_cycle;Max_cycle;Signal;HPM_P1;HPM_P2
2021/09/27 00:00:12;;;;;;;54.45;52.13;;;;;;;17.53;100.00;98000.25;4967202;28;20045;-79
2021/09/27 00:02:38;;;;;;;55.42;53.08;;;;;;;17.40;100.00;97992.22;4966127;28;20035;-80
2021/09/27 00:05:08;;;;;;;54.08;51.80;;;;;;;17.38;100.00;97989.81;4984141;28;20039;-81
2021/09/27 00:07:33;;;;;;;49.25;47.17;;;;;;;17.45;100.00;98005.81;4981775;28;20043;-80
2021/09/27 00:09:59;;;;;;;45.25;43.20;;;;;;;17.31;100.00;97974.91;4981569;28;20035;-80
2021/09/27 00:12:24;;;;;;;62.53;59.85;;;;;;;17.33;100.00;97986.41;4982486;28;20038;-80
2021/09/27 00:14:50;;;;;;;62.85;60.15;;;;;;;17.32;100.00;97998.66;4965021;28;20814;-80
2021/09/27 00:17:15;;;;;;;67.72;64.88;;;;;;;17.29;100.00;98005.63;4983859;28;20476;-80
2021/09/27 00:19:41;;;;;;;65.53;62.78;;;;;;;17.29;100.00;97989.03;4963821;28;20058;-80
2021/09/27 00:22:07;;;;;;;67.35;64.20;;;;;;;17.18;100.00;97995.31;4983001;28;20058;-80
2021/09/27 00:24:34;;;;;;;105.85;101.30;;;;;;;17.28;100.00;98001.28;4967884;28;20042;-80
2021/09/27 00:26:59;;;;;;;105.13;100.38;;;;;;;17.17;100.00;97993.69;4985476;28;20026;-79
2021/09/27 00:29:25;;;;;;;117.63;112.35;;;;;;;17.26;100.00;97997.22;4982628;28;20035;-80
2021/09/27 00:31:51;;;;;;;91.78;87.93;;;;;;;17.34;100.00;97996.34;4982871;28;20562;-79
2021/09/27 00:34:16;;;;;;;84.75;81.22;;;;;;;17.31;100.00;97994.25;4981829;28;20031;-80
2021/09/27 00:36:42;;;;;;;80.55;77.13;;;;;;;17.31;100.00;97997.00;4964594;28;20058;-79
2021/09/27 00:39:08;;;;;;;83.80;80.32;;;;;;;17.31;100.00;98002.53;4966200;28;20023;-79
2021/09/27 00:41:35;;;;;;;96.30;92.28;;;;;;;17.31;100.00;97997.00;4980644;28;20491;-79
2021/09/27 00:44:00;;;;;;;101.38;97.18;;;;;;;17.19;100.00;97972.06;4963692;28;20026;-79
2021/09/27 00:46:28;;;;;;;118.53;113.60;;;;;;;17.35;100.00;98000.72;4962529;28;20023;-79
2021/09/27 00:48:55;;;;;;;98.13;94.03;;;;;;;17.29;100.00;97988.25;4982460;28;20062;-80
2021/09/27 00:51:29;;;;;;;88.72;85.00;;;;;;;17.25;100.00;97998.38;4962962;28;20057;-80
2021/09/27 00:54:03;;;;;;;115.72;110.80;;;;;;;17.29;100.00;97999.31;4981672;28;20045;-80
2021/09/27 00:56:33;;;;;;;106.93;102.47;;;;;;;17.29;100.00;97993.78;4971107;28;20038;-80
2021/09/27 00:59:00;;;;;;;74.75;71.47;;;;;;;17.14;100.00;97978.59;4975648;28;20065;-80
2021/09/27 01:01:26;;;;;;;107.88;103.35;;;;;;;17.27;100.00;97996.06;4973798;28;20046;-80
2021/09/27 01:03:53;;;;;;;95.13;91.07;;;;;;;17.12;100.00;97980.91;4977407;28;20027;-80
2021/09/27 01:06:18;;;;;;;107.13;102.53;;;;;;;17.30;100.00;97995.38;4978641;28;20038;-80
2021/09/27 01:09:04;;;;;;;88.18;84.18;;;;;;;17.23;100.00;98000.66;4970874;28;20019;-79
2021/09/27 01:11:35;;;;;;;79.07;75.77;;;;;;;17.19;100.00;97995.00;4967852;28;20102;-80
2021/09/27 01:14:09;;;;;;;81.32;77.88;;;;;;;17.15;100.00;97999.56;4966812;28;20328;-79
2021/09/27 01:16:46;;;;;;;74.95;71.63;;;;;;;16.97;100.00;97979.56;4982766;28;20055;-80
2021/09/27 01:19:24;;;;;;;66.90;63.80;;;;;;;17.13;100.00;98002.66;4965565;28;20030;-80
2021/09/27 01:22:22;;;;;;;58.55;55.67;;;;;;;17.06;100.00;97982.25;4965339;28;20496;-80
2021/09/27 01:25:10;;;;;;;62.08;59.33;;;;;;;17.13;100.00;98002.66;4990502;28;20038;-79
2021/09/27 01:28:00;;;;;;;76.97;73.57;;;;;;;17.19;100.00;98005.25;4954711;29;20037;-80
2021/09/27 01:30:26;;;;;;;78.50;74.97;;;;;;;17.12;100.00;98006.59;4953360;29;20050;-80
2021/09/27 01:32:58;;;;;;;72.35;69.32;;;;;;;17.02;100.00;97990.41;4971381;29;20039;-80
2021/09/27 01:35:47;;;;;;;65.60;62.58;;;;;;;17.11;100.00;97996.69;4953322;29;20035;-81
2021/09/27 01:38:32;;;;;;;63.60;60.92;;;;;;;17.08;100.00;97994.59;4967730;29;20039;-80
2021/09/27 01:41:08;;;;;;;68.60;65.72;;;;;;;17.16;100.00;97992.09;4953220;29;20035;-81
2021/09/27 01:43:44;;;;;;;77.03;73.75;;;;;;;17.11;100.00;97993.91;4957625;29;20041;-80
2021/09/27 01:46:31;;;;;;;79.88;76.22;;;;;;;17.06;100.00;97990.53;4976966;29;20032;-81
2021/09/27 01:49:28;;;;;;;71.85;68.85;;;;;;;17.11;100.00;97988.38;4971228;29;20039;-80
2021/09/27 01:51:56;;;;;;;;;;;;;;;17.16;100.00;97990.16;4954116;29;20054;-80
2021/09/27 01:54:54;;;;;;;77.32;74.18;;;;;;;17.20;100.00;97993.84;4982002;28;19910;-81
2021/09/27 01:57:30;;;;;;;68.72;65.90;;;;;;;17.18;100.00;97998.09;4953955;28;20027;-81
2021/09/27 02:00:04;;;;;;;68.38;65.47;;;;;;;17.19;100.00;98002.47;4969711;28;20102;-80
2021/09/27 02:02:38;;;;;;;72.57;69.00;;;;;;;17.17;100.00;97990.94;4950476;29;20102;-80
2021/09/27 02:05:23;;;;;;;79.57;76.28;;;;;;;17.18;100.00;97993.38;4968878;29;20023;-80
2021/09/27 02:07:51;;;;;;;82.80;78.85;;;;;;;17.18;100.00;97975.97;4972694;29;20042;-80
2021/09/27 02:10:28;;;;;;;81.97;78.47;;;;;;;17.20;100.00;97979.22;4956154;29;20034;-81
2021/09/27 02:13:09;;;;;;;81.78;77.47;;;;;;;17.19;100.00;97972.88;4972040;29;20047;-79
2021/09/27 02:15:47;;;;;;;347.20;330.60;;;;;;;17.31;100.00;97991.47;4954388;29;20032;-79
2021/09/27 02:18:22;;;;;;;63.15;60.50;;;;;;;17.28;100.00;97986.63;4966048;29;20047;-79
2021/09/27 02:20:56;;;;;;;55.53;53.13;;;;;;;17.24;100.00;97980.97;4948420;29;20039;-79
2021/09/27 02:23:28;;;;;;;55.83;53.53;;;;;;;17.31;100.00;97991.47;4948544;29;20043;-79
2021/09/27 02:25:55;;;;;;;54.60;52.25;;;;;;;17.28;100.00;97975.56;4949501;29;20041;-79
2021/09/27 02:28:22;;;;;;;55.28;52.97;;;;;;;17.29;100.00;97968.91;4952433;29;20019;-80
2021/09/27 02:31:00;;;;;;;53.38;51.17;;;;;;;17.32;100.00;97971.00;4953737;29;20027;-80
2021/09/27 02:33:50;;;;;;;52.95;50.75;;;;;;;17.30;100.00;97973.25;4953449;29;20495;-81
2021/09/27 02:36:29;;;;;;;48.42;46.22;;;;;;;17.35;100.00;97970.31;4952668;29;20030;-81
2021/09/27 02:39:06;;;;;;;50.17;48.10;;;;;;;17.35;100.00;97970.31;4969623;29;20595;-81
2021/09/27 02:41:43;;;;;;;53.83;51.38;;;;;;;17.37;100.00;97973.53;4970922;29;20035;-81
2021/09/27 02:44:09;;;;;;;48.83;46.83;;;;;;;17.32;100.00;97969.00;4952761;29;20034;-80
2021/09/27 02:46:42;;;;;;;56.58;54.17;;;;;;;17.30;100.00;97965.78;4968787;29;20081;-81
2021/09/27 02:49:10;;;;;;;68.78;65.93;;;;;;;17.31;100.00;97977.66;4970840;29;20011;-81
2021/09/27 02:51:39;;;;;;;70.07;66.57;;;;;;;17.20;100.00;97973.69;4953828;29;20392;-80
2021/09/27 02:54:07;;;;;;;104.13;99.80;;;;;;;17.06;100.00;97958.19;4950695;29;20020;-80
2021/09/27 02:56:52;;;;;;;103.82;99.53;;;;;;;17.23;100.00;97973.03;4967489;29;20070;-80
2021/09/27 02:59:27;;;;;;;92.90;88.80;;;;;;;17.07;100.00;97976.38;4949345;29;20045;-79
2021/09/27 03:02:12;;;;;;;78.53;75.22;;;;;;;17.00;100.00;97978.88;4967036;29;20035;-80
2021/09/27 03:04:58;;;;;;;80.63;77.30;;;;;;;17.09;100.00;97973.28;4967248;29;20027;-80
2021/09/27 03:07:38;;;;;;;60.42;57.90;;;;;;;16.95;100.00;97972.72;4966376;29;20081;-80
2021/09/27 03:10:18;;;;;;;48.72;46.47;;;;;;;16.90;100.00;97979.28;4967429;29;20035;-80
2021/09/27 03:13:39;;;;;;;47.67;45.63;;;;;;;16.84;100.00;97977.84;4965360;29;20078;-80
2021/09/27 03:16:46;;;;;;;57.20;54.72;;;;;;;16.83;100.00;97980.94;4907209;29;20033;-80
2021/09/27 03:19:53;;;;;;;107.53;102.63;;;;;;;16.78;100.00;97976.44;4901599;29;20040;-80
2021/09/27 03:22:49;;;;;;;116.38;111.50;;;;;;;16.76;100.00;97975.94;4925446;29;20051;-80
2021/09/27 03:25:30;;;;;;;85.22;81.68;;;;;;;16.82;100.00;97969.06;4970984;29;20027;-80
2021/09/27 03:28:25;;;;;;;55.90;53.53;;;;;;;16.82;100.00;97974.59;4946296;29;20099;-80
2021/09/27 03:31:03;;;;;;;123.25;117.43;;;;;;;16.89;100.00;97974.06;4943303;29;20035;-79
2021/09/27 03:33:46;;;;;;;109.47;104.85;;;;;;;16.73;100.00;97964.78;4960290;29;20031;-80
2021/09/27 03:36:49;;;;;;;97.05;92.97;;;;;;;16.78;100.00;97968.16;4960791;29;20064;-80
2021/09/27 03:39:35;;;;;;;91.38;87.22;;;;;;;16.67;100.00;97966.09;4934137;29;20043;-81
2021/09/27 03:42:31;;;;;;;76.00;72.32;;;;;;;16.75;100.00;97971.59;4991262;28;20022;-81
2021/09/27 03:45:11;;;;;;;58.60;55.70;;;;;;;16.60;100.00;97972.16;4976740;28;20038;-81
2021/09/27 03:48:13;;;;;;;48.53;46.42;;;;;;;16.60;100.00;97974.94;4998100;28;20035;-79
2021/09/27 03:50:45;;;;;;;47.53;45.40;;;;;;;16.57;100.00;97959.03;4962125;28;20034;-81
2021/09/27 03:53:16;;;;;;;66.35;63.25;;;;;;;16.63;100.00;97976.22;4965183;28;20125;-81
2021/09/27 03:56:08;;;;;;;70.32;67.28;;;;;;;16.59;100.00;97976.06;4973026;28;20046;-82
2021/09/27 03:58:43;;;;;;;130.45;124.75;;;;;;;16.52;100.00;97975.75;4978746;28;20003;-82
2021/09/27 04:01:38;;;;;;;133.30;127.32;;;;;;;16.57;100.00;97981.13;4980912;28;20018;-82
2021/09/27 04:04:27;;;;;;;178.55;170.73;;;;;;;16.50;100.00;97959.53;4993728;28;20039;-81
2021/09/27 04:07:35;;;;;;;298.88;285.63;;;;;;;16.61;100.00;97973.78;4974547;28;20102;-83
2021/09/27 04:10:18;;;;;;;323.83;309.50;;;;;;;16.62;100.00;97974.59;4940128;28;20078;-81
2021/09/27 04:12:56;;;;;;;338.60;323.17;;;;;;;16.52;100.00;97986.78;4942053;29;20121;-81
2021/09/27 04:15:40;;;;;;;249.18;237.45;;;;;;;16.46;100.00;97977.91;4961662;29;20031;-81
2021/09/27 04:18:23;;;;;;;240.43;229.18;;;;;;;16.46;100.00;97982.59;4941531;29;20133;-80
2021/09/27 04:21:22;;;;;;;125.50;120.03;;;;;;;16.50;100.00;97984.38;4956985;29;20094;-79
2021/09/27 04:24:09;;;;;;;218.07;207.95;;;;;;;16.57;100.00;97978.38;4889576;29;20626;-81
2021/09/27 04:26:40;;;;;;;135.05;129.15;;;;;;;16.51;100.00;97990.69;4919879;29;20489;-80
2021/09/27 04:29:48;;;;;;;87.82;83.82;;;;;;;16.48;100.00;97980.31;4937464;29;20389;-80
2021/09/27 04:32:40;;;;;;;92.70;88.70;;;;;;;16.61;100.00;97973.78;4900210;29;20122;-80
2021/09/27 04:35:19;;;;;;;89.18;85.20;;;;;;;16.51;100.00;97968.59;4939519;29;20035;-80
2021/09/27 04:37:47;;;;;;;103.30;98.82;;;;;;;16.49;100.00;97970.88;4925233;29;20035;-81
2021/09/27 04:40:15;;;;;;;104.45;99.65;;;;;;;16.50;100.00;97983.56;4944149;29;20027;-80
2021/09/27 04:42:46;;;;;;;245.57;234.45;;;;;;;16.53;100.00;97983.72;4932112;29;20035;-79
2021/09/27 04:45:39;;;;;;;267.20;254.90;;;;;;;16.41;100.00;97975.31;4931678;29;20128;-83
2021/09/27 04:49:03;;;;;;;322.00;306.60;;;;;;;16.46;100.00;97979.84;4930985;29;20031;-81
2021/09/27 04:51:51;;;;;;;291.60;277.90;;;;;;;16.46;100.00;97983.41;4906450;28;20043;-83
2021/09/27 04:54:41;;;;;;;504.98;477.33;;;;;;;16.46;100.00;97979.84;4962231;28;20015;-80
2021/09/27 04:57:28;;;;;;;574.33;541.65;;;;;;;16.50;100.00;97989.91;4955151;29;20035;-79
2021/09/27 04:59:53;;;;;;;560.28;529.38;;;;;;;16.43;100.00;97986.03;4951042;29;20047;-80
2021/09/27 05:02:31;;;;;;;394.17;375.48;;;;;;;16.36;100.00;97980.22;4958859;29;20035;-78
2021/09/27 05:05:15;;;;;;;461.33;438.17;;;;;;;16.39;100.00;97976.78;4934852;29;21493;-77
2021/09/27 05:07:53;;;;;;;422.25;401.42;;;;;;;16.38;100.00;97978.72;4934769;29;20550;-78
2021/09/27 05:10:42;;;;;;;347.83;331.95;;;;;;;16.34;100.00;97974.22;4952357;29;20092;-77
2021/09/27 05:13:26;;;;;;;205.75;197.00;;;;;;;16.39;100.00;97974.03;4934117;29;20031;-78
2021/09/27 05:16:16;;;;;;;264.70;253.10;;;;;;;16.37;100.00;97979.06;4953786;28;20028;-78
2021/09/27 05:19:00;;;;;;;259.25;247.85;;;;;;;16.35;100.00;97975.84;4942925;29;20090;-77
2021/09/27 05:21:32;;;;;;;362.02;344.92;;;;;;;16.58;100.00;97988.25;4943027;28;20061;-78
2021/09/27 05:24:25;;;;;;;306.50;292.83;;;;;;;16.57;100.00;97987.44;4980059;28;20039;-78
2021/09/27 05:26:59;;;;;;;153.70;146.90;;;;;;;16.54;100.00;97981.72;4961675;28;20034;-77
2021/09/27 05:29:30;;;;;;;225.55;215.77;;;;;;;16.56;100.00;97990.53;4980392;28;20019;-77
2021/09/27 05:32:24;;;;;;;245.73;234.73;;;;;;;16.55;100.00;97991.69;4981614;28;20065;-78
2021/09/27 05:35:08;;;;;;;262.95;250.48;;;;;;;16.55;100.00;97991.69;4980601;28;20041;-77
2021/09/27 05:38:11;;;;;;;260.45;248.77;;;;;;;16.61;100.00;97998.63;4964484;28;20554;-76
2021/09/27 05:40:36;;;;;;;191.27;182.90;;;;;;;16.65;100.00;97990.50;4980431;28;20031;-77
2021/09/27 05:43:39;;;;;;;132.90;127.38;;;;;;;16.62;100.00;97997.50;4963057;28;20103;-76
2021/09/27 05:46:10;;;;;;;162.82;155.95;;;;;;;16.64;100.00;97991.63;4980787;28;20052;-76
2021/09/27 05:48:41;;;;;;;103.18;98.88;;;;;;;16.67;100.00;97993.72;4982064;28;20653;-77
2021/09/27 05:51:27;;;;;;;114.85;110.10;;;;;;;16.67;100.00;97989.00;4965354;28;20073;-77
2021/09/27 05:53:59;;;;;;;127.23;121.80;;;;;;;16.85;100.00;97995.25;4982768;28;20034;-77
2021/09/27 05:56:39;;;;;;;117.55;112.35;;;;;;;16.89;100.00;97991.47;4985970;28;20273;-78
2021/09/27 05:59:08;;;;;;;113.10;108.28;;;;;;;17.10;100.00;97997.81;4962101;28;20065;-78
2021/09/27 06:07:34;;;;;;;109.40;104.70;;;;;;;17.20;100.00;97998.59;5108265;27;20407;-74
2021/09/27 06:10:15;;;;;;;145.93;139.80;;;;;;;17.24;100.00;97988.44;5108532;28;20040;-75
2021/09/27 06:12:53;;;;;;;136.60;130.85;;;;;;;17.28;100.00;98006.81;5107442;28;20023;-75
2021/09/27 06:15:25;;;;;;;115.93;110.97;;;;;;;17.45;100.00;97998.34;5108384;28;20073;-74
2021/09/27 06:18:02;;;;;;;136.23;130.48;;;;;;;17.56;100.00;97999.59;5108055;28;20077;-74
2021/09/27 06:20:42;;;;;;;123.88;118.65;;;;;;;17.62;100.00;98003.75;5106998;28;20031;-75
2021/09/27 06:23:29;;;;;;;89.32;85.60;;;;;;;17.72;100.00;98004.47;5108269;28;20085;-75
2021/09/27 06:26:06;;;;;;;78.90;75.55;;;;;;;17.87;100.00;97995.53;5107702;28;20534;-77
2021/09/27 06:28:46;;;;;;;41.15;39.35;;;;;;;18.02;100.00;98006.75;5107354;28;20020;-75
2021/09/27 06:31:51;;;;;;;75.53;72.13;;;;;;;18.10;100.00;97997.56;5108316;28;20024;-75
2021/09/27 06:34:29;;;;;;;50.53;48.40;;;;;;;18.23;100.00;98005.91;5101715;28;20433;-73
2021/09/27 06:36:57;;;;;;;42.03;40.15;;;;;;;18.38;100.00;98007.97;5106556;28;20555;-74
2021/09/27 06:39:29;;;;;;;56.10;53.65;;;;;;;18.26;100.00;98006.03;5107605;28;20039;-73
2021/09/27 06:41:55;;;;;;;50.75;48.38;;;;;;;18.40;100.00;98002.91;5107497;28;20016;-75
2021/09/27 06:44:24;;;;;;;42.97;41.03;;;;;;;18.33;100.00;98013.72;5107641;28;20059;-75
2021/09/27 06:46:51;;;;;;;53.85;51.25;;;;;;;18.30;100.00;98009.69;5106598;28;20027;-75
2021/09/27 06:49:18;;;;;;;61.50;58.90;;;;;;;18.49;100.00;98009.13;5107693;28;20024;-73
2021/09/27 06:51:44;;;;;;;82.88;79.22;;;;;;;18.52;100.00;98014.00;5106442;28;20008;-72
2021/09/27 06:54:15;;;;;;;51.80;49.45;;;;;;;18.57;100.00;98011.03;5107650;28;20553;-74
2021/09/27 06:56:42;;;;;;;47.33;45.35;;;;;;;18.46;100.00;98010.63;5107453;28;20020;-72
2021/09/27 06:59:08;;;;;;;46.60;44.05;;;;;;;18.63;100.00;98001.34;5105719;28;20038;-72
2021/09/27 07:01:34;;;;;;;44.58;42.33;;;;;;;18.77;100.00;98006.50;5105971;28;20118;-72
2021/09/27 07:03:59;;;;;;;40.30;38.60;;;;;;;18.81;100.00;98005.47;5107021;28;20123;-74
2021/09/27 07:06:25;;;;;;;77.32;74.10;;;;;;;19.37;100.00;98005.59;5106909;28;20572;-76
2021/09/27 07:08:51;;;;;;;99.57;95.28;;;;;;;19.82;100.00;98006.16;5105673;28;20114;-73
2021/09/27 07:11:17;;;;;;;61.53;58.88;;;;;;;20.45;100.00;98000.72;5107105;28;20031;-74
2021/09/27 07:13:44;;;;;;;67.35;64.50;;;;;;;20.24;100.00;98012.03;5105542;28;20024;-73
2021/09/27 07:16:10;;;;;;;81.72;78.10;;;;;;;20.24;100.00;98015.63;5106992;28;20416;-73
2021/09/27 07:18:35;;;;;;;68.57;65.78;;;;;;;20.36;100.00;98008.44;5094703;28;20070;-76
2021/09/27 07:21:03;;;;;;;59.25;56.78;;;;;;;20.37;100.00;98013.59;5092130;28;20028;-74
2021/09/27 07:23:29;;;;;;;36.55;34.92;;;;;;;20.74;97.55;98001.03;5093425;28;20024;-72
2021/09/27 07:25:54;;;;;;;39.15;37.45;;;;;;;21.18;97.97;98010.03;5092474;28;20495;-75
2021/09/27 07:28:22;;;;;;;37.53;35.88;;;;;;;21.52;91.63;98025.09;5094101;28;20036;-73
2021/09/27 07:30:50;;;;;;;31.77;30.35;;;;;;;21.19;92.32;98014.44;5091395;28;20039;-75
2021/09/27 07:33:17;;;;;;;39.42;37.75;;;;;;;21.23;91.92;98017.31;5092333;28;20465;-72
2021/09/27 07:35:43;;;;;;;45.13;43.17;;;;;;;21.10;92.31;98024.97;5091534;28;20024;-75
2021/09/27 07:38:09;;;;;;;46.35;44.20;;;;;;;20.54;93.87;98010.47;5090477;28;20119;-74
2021/09/27 07:40:37;;;;;;;41.13;39.42;;;;;;;20.49;95.59;98021.03;5090244;28;20115;-74
2021/09/27 07:43:03;;;;;;;38.95;37.35;;;;;;;20.40;97.15;98025.97;5091289;28;20377;-75
2021/09/27 07:45:33;;;;;;;37.97;36.30;;;;;;;20.37;97.04;98021.94;5091488;28;20024;-75
2021/09/27 07:47:59;;;;;;;47.13;45.22;;;;;;;20.83;92.67;98021.13;5089587;28;20039;-74
2021/09/27 07:50:25;;;;;;;49.03;46.97;;;;;;;20.94;93.02;98028.91;5089744;28;20035;-72
2021/09/27 07:52:50;;;;;;;56.17;53.88;;;;;;;20.72;92.11;98017.28;5091055;28;20012;-76
2021/09/27 07:55:16;;;;;;;57.13;54.72;;;;;;;20.81;92.98;98019.88;5089790;28;20032;-74
2021/09/27 07:57:42;;;;;;;43.80;41.90;;;;;;;21.21;89.60;98027.97;5091187;28;20012;-77
2021/09/27 08:00:10;;;;;;;36.30;34.72;;;;;;;23.09;80.66;98021.25;5090195;28;20069;-74
2021/09/27 08:02:36;;;;;;;30.27;28.92;;;;;;;24.03;74.69;98020.94;5090168;28;20385;-74
2021/09/27 08:05:02;;;;;;;24.50;23.50;;;;;;;25.30;70.87;98022.16;5089524;28;20016;-75
2021/09/27 08:07:27;;;;;;;18.60;17.80;;;;;;;25.57;66.78;98031.13;5090987;28;20040;-75
2021/09/27 08:09:53;;;;;;;19.67;18.77;;;;;;;25.84;65.91;98034.47;5090882;28;20077;-75
2021/09/27 08:12:19;;;;;;;17.85;17.15;;;;;;;25.64;65.40;98024.75;5089470;28;20477;-74
2021/09/27 08:14:44;;;;;;;17.98;17.27;;;;;;;25.99;65.86;98036.94;5089700;28;20024;-76
2021/09/27 08:17:10;;;;;;;18.25;17.25;;;;;;;26.07;66.26;98035.75;5089131;28;20448;-77
2021/09/27 08:19:39;;;;;;;19.63;18.83;;;;;;;24.47;70.62;98023.84;5090940;28;20028;-76
2021/09/27 08:22:05;;;;;;;16.65;15.95;;;;;;;23.56;75.10;98029.13;5089308;28;20035;-78
2021/09/27 08:24:30;;;;;;;25.08;23.98;;;;;;;22.92;77.10;98017.84;5090456;28;20073;-73
2021/09/27 08:26:56;;;;;;;47.90;45.70;;;;;;;21.83;83.88;98026.97;5089165;28;20032;-73
2021/09/27 08:29:21;;;;;;;36.28;34.75;;;;;;;21.68;85.27;98030.59;5089358;28;20063;-76
2021/09/27 08:31:47;;;;;;;24.80;23.63;;;;;;;21.80;84.54;98022.13;5089638;28;20028;-77
2021/09/27 08:34:12;;;;;;;23.25;22.05;;;;;;;22.11;84.34;98027.53;5090020;28;20032;-73
2021/09/27 08:36:38;;;;;;;22.58;21.52;;;;;;;23.03;79.84;98023.56;5090150;28;20031;-74
2021/09/27 08:39:05;;;;;;;19.35;18.52;;;;;;;23.57;75.28;98036.34;5089737;28;20616;-74
2021/09/27 08:41:33;;;;;;;20.60;18.90;;;;;;;23.40;74.44;98027.34;5089906;28;20087;-74
2021/09/27 08:44:41;;;;;;;19.83;19.02;;;;;;;22.84;76.23;98032.03;5088514;28;20438;-77
2021/09/27 08:47:40;;;;;;;21.67;20.42;;;;;;;22.82;77.70;98028.81;5073095;28;20028;-74
2021/09/27 08:50:28;;;;;;;18.75;17.95;;;;;;;24.13;76.40;98019.50;5088516;28;20016;-78
2021/09/27 08:52:55;;;;;;;19.98;18.38;;;;;;;25.50;67.52;98031.88;5088308;28;20122;-75
2021/09/27 08:55:21;;;;;;;18.05;17.35;;;;;;;25.71;65.53;98033.22;5090043;28;20442;-75
2021/09/27 08:57:55;;;;;;;16.85;16.15;;;;;;;25.64;64.00;98030.38;5088481;28;20567;-74
2021/09/27 09:00:33;;;;;;;18.52;17.73;;;;;;;25.99;63.22;98036.13;5088872;28;20040;-73
2021/09/27 09:03:11;;;;;;;19.73;18.92;;;;;;;26.67;60.80;98032.31;5089266;28;20427;-75
2021/09/27 09:05:47;;;;;;;18.83;17.92;;;;;;;27.29;58.96;98037.53;5092508;28;20044;-75
2021/09/27 09:08:56;;;;;;;17.88;16.73;;;;;;;27.03;59.97;98038.78;5089453;28;20016;-75
2021/09/27 09:11:36;;;;;;;15.32;14.70;;;;;;;27.39;59.88;98029.09;5088167;28;20040;-76
2021/09/27 09:14:14;;;;;;;17.20;16.42;;;;;;;27.87;57.74;98035.00;5088017;28;20103;-77
2021/09/27 09:16:45;;;;;;;15.00;14.40;;;;;;;27.59;58.35;98038.72;5086288;28;20028;-75
2021/09/27 09:19:15;;;;;;;14.75;14.15;;;;;;;28.13;57.18;98034.50;5088185;28;21360;-76
2021/09/27 09:22:13;;;;;;;17.08;16.30;;;;;;;28.17;56.36;98037.31;5092732;28;20027;-77
2021/09/27 09:24:40;;;;;;;17.17;16.17;;;;;;;26.38;62.14;98031.47;5044402;28;20480;-75
2021/09/27 09:27:10;;;;;;;21.60;20.70;;;;;;;25.71;64.35;98024.81;5088475;28;20051;-76
2021/09/27 09:29:38;;;;;;;18.92;18.13;;;;;;;25.34;64.23;98022.94;5085562;28;20027;-76
2021/09/27 09:32:07;;;;;;;18.55;17.75;;;;;;;24.21;69.10;98021.19;5095254;28;20047;-74
2021/09/27 09:34:35;;;;;;;23.65;22.65;;;;;;;23.45;72.45;98017.84;5096812;28;20111;-74
2021/09/27 09:37:08;;;;;;;20.30;19.40;;;;;;;23.13;73.66;98008.97;5092361;28;20107;-77
2021/09/27 09:39:54;;;;;;;20.73;19.85;;;;;;;22.92;74.58;98011.44;5087383;28;20034;-76
2021/09/27 09:42:19;;;;;;;;;;;;;;;22.62;77.85;98002.13;5083321;28;20492;-74
2021/09/27 09:44:48;;;;;;;19.47;18.60;;;;;;;22.88;77.36;98010.59;5087689;28;19960;-74
2021/09/27 09:47:27;;;;;;;20.77;19.98;;;;;;;21.97;82.33;98018.09;5086449;28;20111;-73
2021/09/27 09:50:08;;;;;;;19.17;18.33;;;;;;;21.67;84.27;98009.50;5087156;28;20534;-74
2021/09/27 09:52:36;;;;;;;23.65;22.65;;;;;;;21.60;86.21;98012.16;5086725;28;20024;-75
2021/09/27 09:55:15;;;;;;;26.33;25.20;;;;;;;21.55;87.91;98006.88;5087677;28;20099;-72
2021/09/27 09:57:44;;;;;;;32.85;31.48;;;;;;;21.34;88.13;98010.81;5086106;28;20087;-76
2021/09/27 10:00:17;;;;;;;31.00;29.27;;;;;;;21.36;88.14;98008.44;5086788;28;20342;-75
2021/09/27 10:02:45;;;;;;;30.60;29.33;;;;;;;23.11;79.96;98002.97;5085749;28;20077;-74
2021/09/27 10:05:27;;;;;;;20.45;19.55;;;;;;;25.05;70.85;98012.78;5086230;28;20031;-73
2021/09/27 10:07:56;;;;;;;20.42;19.52;;;;;;;25.89;66.06;98014.47;5086147;28;20044;-75
2021/09/27 10:10:34;;;;;;;15.60;14.90;;;;;;;26.78;62.37;98021.09;5085498;28;20036;-75
2021/09/27 10:13:06;;;;;;;16.52;15.82;;;;;;;26.82;61.01;98016.28;5085417;28;20507;-76
2021/09/27 10:15:34;;;;;;;15.85;15.15;;;;;;;27.82;59.02;98020.53;5087216;28;20032;-74
2021/09/27 10:18:21;;;;;;;16.85;16.15;;;;;;;27.25;59.56;98012.28;5087659;28;20476;-74
2021/09/27 10:21:17;;;;;;;16.58;15.88;;;;;;;26.63;61.90;98008.25;5086667;28;20020;-73
2021/09/27 10:23:47;;;;;;;18.65;17.33;;;;;;;25.07;65.64;97999.19;5085973;28;20020;-74
2021/09/27 10:26:34;;;;;;;19.45;18.08;;;;;;;25.18;65.76;98002.88;5086119;28;20024;-77
2021/09/27 10:29:10;;;;;;;17.85;17.05;;;;;;;24.04;71.06;97993.81;5085476;28;20032;-75
2021/09/27 10:31:42;;;;;;;26.15;25.05;;;;;;;24.00;71.57;97993.75;5079658;28;20055;-75
2021/09/27 10:34:19;;;;;;;19.73;18.92;;;;;;;23.39;73.41;97999.78;5086243;28;20073;-74
2021/09/27 10:36:56;;;;;;;18.02;17.13;;;;;;;22.97;76.04;97999.97;5085903;28;20028;-74
2021/09/27 10:39:23;;;;;;;20.08;19.25;;;;;;;22.75;76.67;98000.81;5083972;28;20457;-76
2021/09/27 10:41:57;;;;;;;23.25;22.25;;;;;;;22.48;77.83;97999.94;5087203;28;20030;-76
2021/09/27 10:44:31;;;;;;;17.83;17.02;;;;;;;22.49;77.94;97992.38;5085688;28;20111;-76
2021/09/27 10:47:10;;;;;;;18.23;17.33;;;;;;;24.43;71.11;98003.44;5084794;28;20056;-76
2021/09/27 10:49:42;;;;;;;25.63;24.58;;;;;;;25.26;66.05;98004.50;5083293;28;20020;-76
2021/09/27 10:52:10;;;;;;;23.40;22.40;;;;;;;24.99;67.36;98000.34;5087203;28;20020;-74
2021/09/27 10:54:42;;;;;;;17.92;17.13;;;;;;;25.50;65.68;98012.28;5090420;28;20028;-74
2021/09/27 10:57:17;;;;;;;18.95;18.05;;;;;;;24.19;68.56;98004.78;5091037;28;20387;-76
2021/09/27 10:59:55;;;;;;;17.90;16.73;;;;;;;23.93;70.56;97999.28;5090974;28;20038;-76
2021/09/27 11:02:40;;;;;;;18.25;17.00;;;;;;;23.88;71.41;97996.81;5092515;28;20051;-73
2021/09/27 11:05:23;;;;;;;18.33;17.52;;;;;;;23.56;73.11;97995.63;5091646;28;20139;-76
2021/09/27 11:07:55;;;;;;;20.63;19.75;;;;;;;23.50;72.98;97999.94;5090314;28;20044;-74
2021/09/27 11:10:42;;;;;;;20.92;19.65;;;;;;;23.40;73.17;97993.03;5090791;28;20127;-74
2021/09/27 11:13:17;;;;;;;19.30;18.50;;;;;;;23.39;72.50;97995.03;5089403;28;20647;-73
2021/09/27 11:15:55;;;;;;;20.02;18.58;;;;;;;23.32;73.76;97988.50;5091665;28;20028;-74
2021/09/27 11:18:31;;;;;;;19.15;18.25;;;;;;;23.23;73.11;97979.59;5089737;28;20031;-75
2021/09/27 11:21:01;;;;;;;19.90;18.90;;;;;;;23.12;73.49;97987.03;5088623;28;20026;-73
2021/09/27 11:23:34;;;;;;;22.58;20.98;;;;;;;23.04;74.64;97988.09;5088816;28;20028;-76
2021/09/27 11:26:21;;;;;;;18.75;17.63;;;;;;;22.77;74.31;97982.50;5090507;28;20024;-76
2021/09/27 11:28:53;;;;;;;17.98;17.10;;;;;;;22.83;74.24;97983.00;5089974;28;20124;-74
2021/09/27 11:31:28;;;;;;;17.50;16.75;;;;;;;22.93;74.80;97979.56;5089139;28;20491;-75
2021/09/27 11:33:59;;;;;;;19.80;18.27;;;;;;;23.39;74.23;97981.06;5086994;28;20028;-73
2021/09/27 11:36:27;;;;;;;17.40;16.60;;;;;;;23.84;71.17;97988.38;5089819;28;20039;-74
2021/09/27 11:39:08;;;;;;;20.02;19.13;;;;;;;23.89;71.35;97982.47;5087338;28;20028;-74
2021/09/27 11:41:39;;;;;;;24.75;23.65;;;;;;;23.38;72.61;97984.19;5088087;28;20032;-76
2021/09/27 11:44:28;;;;;;;22.15;20.85;;;;;;;23.40;73.28;97982.66;5089395;28;20460;-73
2021/09/27 11:47:07;;;;;;;17.73;16.48;;;;;;;23.16;74.30;97980.31;5086255;28;20752;-72
2021/09/27 11:50:14;;;;;;;17.25;16.50;;;;;;;23.02;75.48;97982.09;5089132;28;20021;-75
2021/09/27 11:52:54;;;;;;;16.60;15.90;;;;;;;22.96;75.32;97984.41;5089535;28;20016;-76
2021/09/27 11:55:32;;;;;;;19.48;18.52;;;;;;;22.77;76.30;97988.09;5093122;28;21061;-75